createdAt,value
2022-10-23T00:01:29.132Z,19.02
2022-10-23T00:04:18.294Z,23.70
2022-10-23T00:07:03.565Z,19.05
2022-10-23T00:09:48.893Z,15.88
2022-10-23T00:12:34.245Z,5.13
2022-10-23T00:15:22.124Z,12.60
2022-10-23T00:18:07.607Z,21.80
2022-10-23T00:20:53.082Z,12.30
2022-10-23T00:23:38.546Z,15.43
2022-10-23T00:26:23.913Z,19.88
2022-10-23T00:29:10.531Z,10.57
2022-10-23T00:31:56.036Z,20.95
2022-10-23T00:34:41.974Z,13.02
2022-10-23T00:37:27.493Z,15.75
2022-10-23T00:40:13.205Z,22.00
2022-10-23T00:42:59.015Z,26.10
2022-10-23T00:45:44.306Z,21.00
2022-10-23T00:48:29.817Z,21.77
2022-10-23T00:51:15.659Z,22.15
2022-10-23T00:54:25.793Z,13.02
2022-10-23T00:57:13.321Z,10.60
2022-10-23T00:59:59.062Z,14.82
2022-10-23T01:02:45.774Z,8.77
2022-10-23T01:05:41.366Z,10.85
2022-10-23T01:08:40.729Z,9.80
2022-10-23T01:12:03.016Z,16.58
2022-10-23T01:15:27.260Z,11.38
2022-10-23T01:18:29.782Z,3.38
2022-10-23T01:21:31.210Z,7.80
2022-10-23T01:24:41.462Z,7.32
2022-10-23T01:27:35.280Z,9.38
2022-10-23T01:30:21.014Z,14.63
2022-10-23T01:33:25.404Z,8.20
2022-10-23T01:36:16.837Z,11.77
2022-10-23T01:39:09.052Z,8.80
2022-10-23T01:42:10.939Z,8.90
2022-10-23T01:45:05.068Z,8.98
2022-10-23T01:48:01.569Z,10.88
2022-10-23T01:50:47.479Z,8.15
2022-10-23T01:53:41.260Z,5.78
2022-10-23T01:56:38.732Z,6.60
2022-10-23T01:59:29.743Z,13.10
2022-10-23T02:02:17.753Z,8.38
2022-10-23T02:05:11.813Z,7.13
2022-10-23T02:07:58.663Z,6.43
2022-10-23T02:11:04.401Z,9.15
2022-10-23T02:13:59.390Z,5.55
2022-10-23T02:16:55.064Z,4.10
2022-10-23T02:19:45.519Z,7.85
2022-10-23T02:22:38.513Z,4.30
2022-10-23T02:25:33.450Z,1.70
2022-10-23T02:28:26.359Z,3.08
2022-10-23T02:31:19.868Z,2.72
2022-10-23T02:34:06.924Z,3.72
2022-10-23T02:36:52.342Z,7.15
2022-10-23T02:39:40.591Z,7.20
2022-10-23T02:42:35.230Z,9.48
2022-10-23T02:45:44.510Z,2.40
2022-10-23T02:48:43.136Z,8.15
2022-10-23T02:51:45.628Z,3.20
2022-10-23T02:54:34.309Z,6.30
2022-10-23T02:57:20.035Z,4.35
2022-10-23T03:00:09.382Z,4.35
2022-10-23T03:03:10.129Z,11.05
2022-10-23T03:05:56.314Z,8.75
2022-10-23T03:08:50.188Z,8.13
2022-10-23T03:11:37.322Z,5.50
2022-10-23T03:14:22.654Z,6.03
2022-10-23T03:17:10.223Z,4.32
2022-10-23T03:19:55.782Z,8.48
2022-10-23T03:22:41.465Z,13.85
2022-10-23T03:25:27.494Z,6.72
2022-10-23T03:28:16.213Z,7.82
2022-10-23T03:31:03.714Z,6.95
2022-10-23T03:33:49.247Z,20.08
2022-10-23T03:36:34.633Z,15.15
2022-10-23T03:39:20.385Z,12.55
2022-10-23T03:42:06.430Z,19.25
2022-10-23T03:44:51.791Z,14.35
2022-10-23T03:47:41.406Z,11.85
2022-10-23T03:50:27.187Z,12.10
2022-10-23T03:53:12.420Z,11.02
2022-10-23T03:55:57.797Z,15.90
2022-10-23T03:58:43.288Z,11.05
2022-10-23T04:01:29.007Z,9.98
2022-10-23T04:04:15.171Z,4.78
2022-10-23T04:07:01.754Z,15.35
2022-10-23T04:09:47.659Z,8.07
2022-10-23T04:12:35.248Z,8.18
2022-10-23T04:15:20.812Z,15.90
2022-10-23T04:18:06.261Z,9.35
2022-10-23T04:20:53.293Z,9.43
2022-10-23T04:23:39.039Z,3.92
2022-10-23T04:26:30.619Z,7.50
2022-10-23T04:29:15.983Z,12.10
2022-10-23T04:32:01.310Z,7.30
2022-10-23T04:34:47.267Z,11.82
2022-10-23T04:37:32.630Z,7.03
2022-10-23T04:40:19.073Z,12.85
2022-10-23T04:43:05.340Z,15.25
2022-10-23T04:45:55.435Z,22.13
2022-10-23T04:48:40.806Z,11.85
2022-10-23T04:51:38.618Z,12.95
2022-10-23T04:57:44.814Z,21.80
2022-10-23T05:00:30.799Z,3.72
2022-10-23T05:03:18.146Z,8.45
2022-10-23T05:06:04.565Z,21.33
2022-10-23T05:09:04.137Z,22.15
2022-10-23T05:12:02.509Z,20.27
2022-10-23T05:14:48.567Z,4.85
2022-10-23T05:17:37.960Z,13.10
2022-10-23T05:20:26.977Z,10.23
2022-10-23T05:23:16.673Z,7.43
2022-10-23T05:26:11.097Z,14.43
2022-10-23T05:28:57.993Z,9.95
2022-10-23T05:31:44.378Z,8.40
2022-10-23T05:34:34.340Z,11.48
2022-10-23T05:37:19.810Z,14.98
2022-10-23T05:40:06.053Z,14.70
2022-10-23T05:42:53.518Z,7.25
2022-10-23T05:45:47.701Z,11.40
2022-10-23T05:48:52.087Z,14.98
2022-10-23T05:52:00.426Z,4.32
2022-10-23T05:54:57.418Z,15.15
2022-10-23T05:58:03.213Z,8.95
2022-10-23T06:01:09.945Z,11.10
2022-10-23T06:04:21.816Z,8.15
2022-10-23T06:07:32.318Z,11.85
2022-10-23T06:10:22.961Z,12.05
2022-10-23T06:13:10.505Z,9.07
2022-10-23T06:15:55.754Z,5.22
2022-10-23T06:18:44.521Z,14.77
2022-10-23T06:21:37.020Z,8.38
2022-10-23T06:24:24.059Z,13.35
2022-10-23T06:27:18.402Z,6.00
2022-10-23T06:30:07.283Z,14.63
2022-10-23T06:32:52.574Z,11.48
2022-10-23T06:35:38.051Z,6.85
2022-10-23T06:38:24.453Z,9.82
2022-10-23T06:41:19.011Z,6.85
2022-10-23T06:44:10.264Z,9.43
2022-10-23T06:47:10.764Z,12.32
2022-10-23T06:50:25.473Z,11.65
2022-10-23T06:53:12.526Z,8.50
2022-10-23T06:58:53.280Z,8.20
2022-10-23T07:01:38.932Z,11.30
2022-10-23T07:04:26.176Z,12.77
2022-10-23T07:07:12.512Z,8.80
2022-10-23T07:10:05.241Z,8.23
2022-10-23T07:13:01.242Z,6.63
2022-10-23T07:15:58.550Z,8.95
2022-10-23T07:18:47.019Z,6.57
2022-10-23T07:21:48.503Z,4.38
2022-10-23T07:24:59.742Z,15.47
2022-10-23T07:27:52.134Z,10.45
2022-10-23T07:30:37.745Z,13.60
2022-10-23T07:33:23.613Z,12.93
2022-10-23T07:36:18.910Z,6.78
2022-10-23T07:39:04.333Z,8.43
2022-10-23T07:41:53.311Z,13.27
2022-10-23T07:44:38.957Z,5.32
2022-10-23T07:47:25.029Z,7.63
2022-10-23T07:50:11.369Z,14.50
2022-10-23T07:52:58.669Z,10.82
2022-10-23T07:56:00.832Z,11.23
2022-10-23T07:59:00.780Z,9.90
2022-10-23T08:01:49.533Z,11.30
2022-10-23T08:04:37.831Z,8.52
2022-10-23T08:07:32.761Z,10.57
2022-10-23T08:10:18.659Z,12.70
2022-10-23T08:13:04.514Z,10.35
2022-10-23T08:16:23.753Z,10.98
2022-10-23T08:19:29.682Z,14.82
2022-10-23T08:22:16.545Z,16.08
2022-10-23T08:25:02.288Z,7.53
2022-10-23T08:27:49.591Z,8.35
2022-10-23T08:30:37.605Z,4.97
2022-10-23T08:33:24.613Z,12.85
2022-10-23T08:36:19.863Z,5.22
2022-10-23T08:39:05.815Z,7.78
2022-10-23T08:41:52.789Z,12.07
2022-10-23T08:45:22.172Z,20.95
2022-10-23T08:48:41.653Z,13.20
2022-10-23T08:52:17.662Z,5.45
2022-10-23T08:55:12.306Z,18.58
2022-10-23T08:58:16.103Z,7.90
2022-10-23T09:01:17.583Z,6.28
2022-10-23T09:04:04.744Z,6.65
2022-10-23T09:07:29.740Z,11.07
2022-10-23T09:10:33.353Z,9.80
2022-10-23T09:13:47.678Z,15.85
2022-10-23T09:16:49.475Z,14.93
2022-10-23T09:19:35.149Z,10.35
2022-10-23T09:22:21.063Z,22.40
2022-10-23T09:25:18.351Z,13.32
2022-10-23T09:28:05.786Z,9.32
2022-10-23T09:30:52.644Z,11.27
2022-10-23T09:33:39.593Z,14.73
2022-10-23T09:36:29.127Z,19.83
2022-10-23T09:39:24.460Z,23.95
2022-10-23T09:42:24.785Z,12.10
2022-10-23T09:45:25.690Z,10.35
2022-10-23T09:48:18.684Z,25.75
2022-10-23T09:51:16.545Z,21.10
2022-10-23T09:54:02.563Z,20.30
2022-10-23T09:56:49.341Z,11.85
2022-10-23T09:59:34.693Z,15.25
2022-10-23T10:02:33.475Z,13.02
2022-10-23T10:05:58.039Z,15.80
2022-10-23T10:08:51.782Z,12.65
2022-10-23T10:11:48.424Z,18.75
2022-10-23T10:14:52.272Z,9.88
2022-10-23T10:17:57.986Z,7.93
2022-10-23T10:21:25.661Z,11.60
2022-10-23T10:24:24.320Z,20.73
2022-10-23T10:27:50.358Z,18.92
2022-10-23T10:30:56.693Z,9.95
2022-10-23T10:34:24.051Z,16.17
2022-10-23T10:37:37.320Z,10.77
2022-10-23T10:40:34.278Z,13.13
2022-10-23T10:43:51.755Z,15.55
2022-10-23T10:46:46.356Z,14.95
2022-10-23T10:49:49.879Z,17.42
2022-10-23T10:52:50.647Z,15.30
2022-10-23T10:55:41.114Z,20.10
2022-10-23T10:58:51.411Z,15.30
2022-10-23T11:01:49.881Z,11.65
2022-10-23T11:04:46.684Z,19.50
2022-10-23T11:07:41.438Z,14.85
2022-10-23T11:10:27.197Z,25.92
2022-10-23T11:13:40.752Z,15.38
2022-10-23T11:16:29.257Z,16.85
2022-10-23T11:19:47.572Z,25.17
2022-10-23T11:23:03.707Z,25.27
2022-10-23T11:26:32.109Z,25.75
2022-10-23T11:29:46.512Z,12.20
2022-10-23T11:32:49.201Z,13.23
2022-10-23T11:36:00.670Z,16.17
2022-10-23T11:38:49.110Z,11.73
2022-10-23T11:41:34.898Z,15.82
2022-10-23T11:44:40.595Z,9.60
2022-10-23T11:47:39.523Z,12.70
2022-10-23T11:50:48.096Z,6.50
2022-10-23T11:53:33.704Z,10.07
2022-10-23T11:56:21.941Z,14.57
2022-10-23T11:59:19.779Z,9.52
2022-10-23T12:02:22.308Z,11.73
2022-10-23T12:05:26.397Z,13.18
2022-10-23T12:08:25.481Z,21.58
2022-10-23T12:11:48.050Z,14.40
2022-10-23T12:17:25.317Z,13.13
2022-10-23T12:20:12.117Z,10.98
2022-10-23T12:23:00.580Z,20.30
2022-10-23T12:26:04.835Z,11.18
2022-10-23T12:28:59.549Z,13.63
2022-10-23T12:32:12.970Z,16.30
2022-10-23T12:35:33.086Z,23.33
2022-10-23T12:38:21.965Z,18.65
2022-10-23T12:41:17.691Z,17.92
2022-10-23T12:44:10.271Z,14.70
2022-10-23T12:47:03.774Z,12.35
2022-10-23T12:49:51.028Z,13.75
2022-10-23T12:52:39.827Z,11.65
2022-10-23T12:55:29.734Z,13.38
2022-10-23T12:58:30.137Z,12.25
2022-10-23T13:01:33.280Z,5.80
2022-10-23T13:04:39.480Z,7.70
2022-10-23T13:07:31.969Z,4.45
2022-10-23T13:10:22.114Z,7.55
2022-10-23T13:13:22.074Z,6.75
2022-10-23T13:16:19.322Z,1.73
2022-10-23T13:19:04.967Z,4.90
2022-10-23T13:21:50.478Z,3.28
2022-10-23T13:24:35.961Z,7.47
2022-10-23T13:27:41.755Z,4.40
2022-10-23T13:30:29.788Z,8.77
2022-10-23T13:33:22.137Z,6.60
2022-10-23T13:36:13.484Z,7.65
2022-10-23T13:38:59.180Z,5.18
2022-10-23T13:41:46.739Z,7.38
2022-10-23T13:44:32.701Z,5.57
2022-10-23T13:47:18.081Z,8.40
2022-10-23T13:50:03.568Z,7.53
2022-10-23T13:52:49.323Z,4.22
2022-10-23T13:55:35.037Z,3.13
2022-10-23T13:58:20.417Z,10.25
2022-10-23T14:01:06.991Z,5.93
2022-10-23T14:03:54.255Z,6.43
2022-10-23T14:06:40.201Z,5.05
2022-10-23T14:09:25.745Z,4.78
2022-10-23T14:12:12.444Z,11.43
2022-10-23T14:14:57.844Z,11.30
2022-10-23T14:17:43.196Z,5.88
2022-10-23T14:20:29.014Z,15.10
2022-10-23T14:23:14.847Z,20.95
2022-10-23T14:26:05.690Z,11.55
2022-10-23T14:28:55.685Z,10.07
2022-10-23T14:31:41.366Z,18.55
2022-10-23T14:34:26.966Z,15.60
2022-10-23T14:37:12.244Z,13.95
2022-10-23T14:39:58.020Z,10.85
2022-10-23T14:42:43.589Z,10.93
2022-10-23T14:45:29.935Z,13.38
2022-10-23T14:48:15.591Z,13.57
2022-10-23T14:51:01.104Z,12.38
2022-10-23T14:53:47.411Z,8.55
2022-10-23T14:56:35.749Z,5.32
2022-10-23T14:59:21.303Z,11.23
2022-10-23T15:02:06.646Z,13.57
2022-10-23T15:04:52.064Z,11.07
2022-10-23T15:07:37.365Z,12.13
2022-10-23T15:10:22.784Z,13.43
2022-10-23T15:13:08.215Z,13.95
2022-10-23T15:16:08.638Z,9.77
2022-10-23T15:18:54.349Z,14.10
2022-10-23T15:21:39.969Z,16.60
2022-10-23T15:24:26.736Z,15.98
2022-10-23T15:27:12.218Z,15.18
2022-10-23T15:29:57.800Z,13.95
2022-10-23T15:32:44.556Z,11.73
2022-10-23T15:35:29.800Z,10.65
2022-10-23T15:38:15.241Z,10.90
2022-10-23T15:41:14.639Z,9.52
2022-10-23T15:44:01.577Z,9.02
2022-10-23T15:46:48.423Z,6.00
2022-10-23T15:49:34.649Z,10.55
2022-10-23T15:52:19.970Z,11.27
2022-10-23T15:55:05.659Z,14.55
2022-10-23T15:57:51.291Z,15.60
2022-10-23T16:00:38.263Z,5.28
2022-10-23T16:03:23.790Z,10.90
2022-10-23T16:06:11.546Z,13.23
2022-10-23T16:08:57.036Z,13.25
2022-10-23T16:11:43.608Z,11.70
2022-10-23T16:14:29.371Z,10.98
2022-10-23T16:20:01.396Z,11.95
2022-10-23T16:22:47.208Z,11.02
2022-10-23T16:25:36.245Z,8.27
2022-10-23T16:28:21.741Z,10.48
2022-10-23T16:31:14.456Z,8.32
2022-10-23T16:34:05.609Z,13.80
2022-10-23T16:36:51.190Z,13.27
2022-10-23T16:39:49.547Z,12.38
2022-10-23T16:42:58.457Z,19.02
2022-10-23T16:46:06.466Z,10.02
2022-10-23T16:48:53.302Z,12.20
2022-10-23T16:51:39.126Z,13.00
2022-10-23T16:54:24.671Z,10.82
2022-10-23T16:57:10.147Z,13.30
2022-10-23T16:59:55.489Z,15.82
2022-10-23T17:02:40.967Z,9.48
2022-10-23T17:05:26.910Z,8.05
2022-10-23T17:08:12.105Z,15.85
2022-10-23T17:11:09.302Z,8.38
2022-10-23T17:13:59.326Z,12.85
2022-10-23T17:16:50.988Z,11.40
2022-10-23T17:19:45.014Z,11.15
2022-10-23T17:22:31.054Z,15.95
2022-10-23T17:25:16.853Z,13.90
2022-10-23T17:28:02.270Z,11.15
2022-10-23T17:30:47.671Z,14.73
2022-10-23T17:33:33.227Z,10.15
2022-10-23T17:36:20.155Z,11.07
2022-10-23T17:39:06.939Z,23.23
2022-10-23T17:41:53.241Z,24.63
2022-10-23T17:44:38.861Z,19.83
2022-10-23T17:47:24.227Z,21.95
2022-10-23T17:50:12.323Z,19.80
2022-10-23T17:52:57.913Z,17.10
2022-10-23T17:55:43.489Z,24.38
2022-10-23T17:58:28.975Z,19.70
2022-10-23T18:01:17.219Z,14.85
2022-10-23T18:04:05.655Z,15.43
2022-10-23T18:06:53.520Z,13.70
2022-10-23T18:09:39.168Z,15.30
2022-10-23T18:12:25.194Z,15.45
2022-10-23T18:15:10.834Z,19.33
2022-10-23T18:17:56.236Z,13.20
2022-10-23T18:20:41.944Z,15.95
2022-10-23T18:23:28.798Z,11.35
2022-10-23T18:26:22.943Z,12.77
2022-10-23T18:29:09.590Z,16.13
2022-10-23T18:31:55.209Z,20.27
2022-10-23T18:34:40.433Z,24.42
2022-10-23T18:37:28.898Z,32.65
2022-10-23T18:40:18.598Z,24.90
2022-10-23T18:43:09.071Z,16.50
2022-10-23T18:46:00.295Z,17.85
2022-10-23T18:48:46.422Z,20.05
2022-10-23T18:51:34.451Z,16.08
2022-10-23T18:54:21.460Z,23.30
2022-10-23T18:57:07.495Z,17.08
2022-10-23T18:59:56.211Z,17.50
2022-10-23T19:02:42.104Z,22.33
2022-10-23T19:05:28.129Z,11.77
2022-10-23T19:08:13.972Z,22.80
2022-10-23T19:11:00.437Z,28.77
2022-10-23T19:13:46.278Z,23.55
2022-10-23T19:16:38.452Z,32.13
2022-10-23T19:19:27.242Z,26.08
2022-10-23T19:22:15.361Z,19.92
2022-10-23T19:25:11.410Z,27.25
2022-10-23T19:27:58.085Z,29.60
2022-10-23T19:30:43.798Z,19.70
2022-10-23T19:33:29.207Z,19.10
2022-10-23T19:36:16.695Z,20.23
2022-10-23T19:39:03.566Z,26.33
2022-10-23T19:41:51.771Z,20.70
2022-10-23T19:44:37.572Z,18.73
2022-10-23T19:47:22.976Z,22.30
2022-10-23T19:50:09.941Z,21.63
2022-10-23T19:52:55.619Z,17.45
2022-10-23T19:55:41.235Z,20.17
2022-10-23T19:58:26.853Z,18.52
2022-10-23T20:01:14.790Z,16.63
2022-10-23T20:04:00.537Z,17.55
2022-10-23T20:06:46.994Z,28.25
2022-10-23T20:09:32.672Z,33.72
2022-10-23T20:12:18.522Z,28.45
2022-10-23T20:15:04.693Z,24.73
2022-10-23T20:17:50.463Z,34.13
2022-10-23T20:20:41.602Z,25.10
2022-10-23T20:23:27.272Z,25.58
2022-10-23T20:26:16.764Z,26.02
2022-10-23T20:29:02.409Z,24.08
2022-10-23T20:31:48.569Z,27.30
2022-10-23T20:34:34.445Z,24.33
2022-10-23T20:37:19.665Z,22.15
2022-10-23T20:40:05.902Z,21.63
2022-10-23T20:42:51.343Z,20.48
2022-10-23T20:45:36.867Z,14.48
2022-10-23T20:48:22.845Z,20.35
2022-10-23T20:51:14.252Z,13.70
2022-10-23T20:53:59.854Z,24.00
2022-10-23T20:56:45.327Z,21.50
2022-10-23T20:59:30.827Z,15.77
2022-10-23T21:02:16.317Z,17.83
2022-10-23T21:05:02.097Z,22.80
2022-10-23T21:07:47.345Z,10.90
2022-10-23T21:10:32.744Z,17.40
2022-10-23T21:13:18.037Z,19.02
2022-10-23T21:16:23.563Z,16.20
2022-10-23T21:19:13.654Z,16.75
2022-10-23T21:21:59.081Z,20.85
2022-10-23T21:24:44.956Z,25.05
2022-10-23T21:27:30.978Z,19.98
2022-10-23T21:30:16.836Z,17.45
2022-10-23T21:33:02.428Z,17.27
2022-10-23T21:35:58.011Z,15.60
2022-10-23T21:38:57.233Z,19.42
2022-10-23T21:41:42.852Z,17.13
2022-10-23T21:44:28.414Z,21.70
2022-10-23T21:47:14.065Z,13.77
2022-10-23T21:49:59.621Z,11.38
2022-10-23T21:52:45.672Z,13.98
2022-10-23T21:55:31.772Z,10.90
2022-10-23T21:58:17.550Z,11.77
2022-10-23T22:01:03.302Z,13.95
2022-10-23T22:03:49.112Z,10.05
2022-10-23T22:06:34.770Z,17.38
2022-10-23T22:09:21.615Z,16.75
2022-10-23T22:12:09.032Z,25.60
2022-10-23T22:14:54.342Z,22.63
2022-10-23T22:17:39.858Z,16.20
2022-10-23T22:20:25.206Z,19.33
2022-10-23T22:23:10.518Z,27.55
2022-10-23T22:25:56.365Z,18.90
2022-10-23T22:28:41.858Z,12.90
2022-10-23T22:31:30.742Z,17.02
2022-10-23T22:34:47.745Z,16.20
2022-10-23T22:37:28.095Z,17.40
2022-10-23T22:40:13.406Z,16.45
2022-10-23T22:42:58.692Z,21.10
2022-10-23T22:45:44.064Z,16.23
2022-10-23T22:48:29.439Z,26.27
2022-10-23T22:51:16.795Z,18.58
2022-10-23T22:54:02.118Z,24.58
2022-10-23T22:56:47.562Z,16.70
2022-10-23T22:59:33.039Z,15.32
2022-10-23T23:02:18.480Z,16.00
2022-10-23T23:05:04.549Z,18.95
2022-10-23T23:07:50.172Z,14.35
2022-10-23T23:10:35.555Z,12.60
2022-10-23T23:13:21.542Z,15.50
2022-10-23T23:16:07.191Z,16.92
2022-10-23T23:18:52.645Z,16.85
2022-10-23T23:21:37.925Z,13.55
2022-10-23T23:24:24.108Z,19.00
2022-10-23T23:27:09.688Z,22.95
2022-10-23T23:29:58.301Z,21.98
2022-10-23T23:32:47.221Z,17.33
2022-10-23T23:35:33.424Z,17.42
2022-10-23T23:38:18.699Z,11.98
2022-10-23T23:41:04.876Z,19.13
2022-10-23T23:43:50.649Z,19.15
2022-10-23T23:46:36.309Z,12.68
2022-10-23T23:49:22.247Z,20.17
2022-10-23T23:52:07.815Z,18.33
2022-10-23T23:54:53.276Z,14.82
2022-10-23T23:57:38.906Z,11.90
